Time;durP1;ratioP1;P1;durP2;ratioP2;P2;SDS_P1;SDS_P2;PMS_P1;PMS_P2;Temp;Humidity;BMP_temperature;BMP_pressure;BME280_temperature;BME280_humidity;BME280_pressure;Samples;Min_cycle;Max_cycle;Signal;HPM_P1;HPM_P2
2024/04/20 00:00:56;;;;;;;5.57;1.55;;;;;;;10.04;60.94;101760.84;5306581;26;98475;-90
2024/04/20 00:03:24;;;;;;;5.85;1.45;;;;;;;10.02;60.94;101761.66;5289963;26;94770;-90
2024/04/20 00:05:53;;;;;;;4.80;1.20;;;;;;;9.99;60.97;101758.94;5312502;26;95034;-91
2024/04/20 00:08:23;;;;;;;5.32;1.25;;;;;;;9.96;61.12;101761.44;5281985;26;98104;-90
2024/04/20 00:10:48;;;;;;;5.85;1.30;;;;;;;9.93;60.95;101753.53;5319786;26;97570;-89
2024/04/20 00:13:14;;;;;;;11.00;2.33;;;;;;;9.90;61.06;101762.16;5273867;26;94655;-89
2024/04/20 00:15:42;;;;;;;16.40;3.13;;;;;;;9.87;61.10;101757.72;5283665;26;94987;-90
2024/04/20 00:18:08;;;;;;;13.38;2.05;;;;;;;9.85;61.23;101750.69;5320205;26;98263;-90
2024/04/20 00:20:34;;;;;;;11.45;1.55;;;;;;;9.83;61.33;101761.06;5272279;26;94843;-89
2024/04/20 00:23:02;;;;;;;13.18;1.75;;;;;;;9.82;61.55;101764.53;5291341;26;94751;-91
2024/04/20 00:25:28;;;;;;;9.65;2.60;;;;;;;9.83;61.57;101768.88;5278832;26;95031;-90
2024/04/20 00:27:56;;;;;;;16.02;2.00;;;;;;;9.86;61.31;101770.72;5301677;26;97488;-89
2024/04/20 00:30:22;;;;;;;12.15;2.30;;;;;;;9.87;61.81;101769.88;5307889;26;97134;-90
2024/04/20 00:32:50;;;;;;;12.60;1.90;;;;;;;9.88;61.76;101774.25;5323042;26;94748;-90
2024/04/20 00:35:18;;;;;;;16.08;3.20;;;;;;;9.89;61.50;101776.00;5280382;26;94871;-90
2024/04/20 00:37:49;;;;;;;17.95;2.53;;;;;;;9.93;61.89;101776.97;5285322;26;97652;-90
2024/04/20 00:40:17;;;;;;;20.20;2.92;;;;;;;9.95;61.57;101776.22;5279258;26;98542;-91
2024/04/20 00:42:50;;;;;;;17.83;2.10;;;;;;;9.96;61.67;101785.78;5302568;26;94846;-90
2024/04/20 00:45:16;;;;;;;15.95;3.75;;;;;;;10.00;61.87;101784.16;5327053;26;95033;-91
2024/04/20 00:47:41;;;;;;;14.77;2.88;;;;;;;10.02;61.53;101788.59;5320079;26;97621;-91
2024/04/20 00:50:07;;;;;;;15.27;3.08;;;;;;;10.05;61.50;101782.56;5310478;26;96970;-90
2024/04/20 00:52:36;;;;;;;10.68;2.00;;;;;;;10.09;62.01;101789.66;5312478;26;94767;-90
2024/04/20 00:55:05;;;;;;;8.25;1.60;;;;;;;10.09;61.69;101780.09;5275521;26;94996;-90
2024/04/20 00:57:33;;;;;;;14.45;2.70;;;;;;;10.12;61.66;101788.84;5285581;26;98487;-91
2024/04/20 00:59:59;;;;;;;12.10;2.78;;;;;;;10.12;61.44;101789.72;5307504;26;98021;-90
2024/04/20 01:02:25;;;;;;;13.63;2.70;;;;;;;10.12;61.58;101787.13;5308621;26;94789;-90
2024/04/20 01:04:53;;;;;;;11.57;3.08;;;;;;;10.14;61.72;101789.78;5314763;26;95017;-90
2024/04/20 01:07:21;;;;;;;18.98;2.10;;;;;;;10.15;61.77;101794.16;5266943;26;98062;-90
2024/04/20 01:09:59;;;;;;;18.13;2.63;;;;;;;10.12;61.81;101789.72;5309226;26;97967;-90
2024/04/20 01:12:25;;;;;;;23.60;3.38;;;;;;;10.13;61.50;101801.06;5282556;26;94847;-90
2024/04/20 01:14:55;;;;;;;13.63;2.13;;;;;;;10.10;61.33;101807.94;5316731;26;95101;-90
2024/04/20 01:17:23;;;;;;;17.65;2.63;;;;;;;10.08;61.13;101803.53;5298024;26;95542;-90
2024/04/20 01:19:49;;;;;;;13.88;2.70;;;;;;;10.08;61.55;101800.91;5266063;26;98697;-90
2024/04/20 01:22:15;;;;;;;17.67;3.38;;;;;;;10.07;61.57;101809.56;5268016;26;94807;-90
2024/04/20 01:24:41;;;;;;;17.88;2.65;;;;;;;10.08;61.55;101809.59;5272570;26;94915;-90
2024/04/20 01:27:13;;;;;;;19.63;2.65;;;;;;;10.09;61.29;101805.31;5327748;26;95414;-90
2024/04/20 01:29:41;;;;;;;20.17;3.42;;;;;;;10.07;61.56;101809.56;5318910;26;97607;-90
2024/04/20 01:32:07;;;;;;;22.00;3.30;;;;;;;10.06;61.49;101806.06;5273360;26;94853;-90
2024/04/20 01:34:35;;;;;;;23.23;3.33;;;;;;;10.06;61.55;101807.81;5319554;26;95072;-91
2024/04/20 01:37:07;;;;;;;19.65;3.22;;;;;;;10.05;61.26;101808.63;5271794;26;98513;-89
2024/04/20 01:39:33;;;;;;;18.83;2.95;;;;;;;10.01;61.47;101815.47;5272450;26;98510;-88
2024/04/20 01:41:58;;;;;;;16.70;3.28;;;;;;;9.99;61.12;101814.53;5296151;26;94971;-88
2024/04/20 01:44:24;;;;;;;17.92;2.97;;;;;;;9.98;61.18;101817.09;5295573;26;94904;-88
2024/04/20 01:46:49;;;;;;;16.95;3.10;;;;;;;9.96;61.34;101821.38;5303066;26;95635;-90
2024/04/20 01:49:18;;;;;;;19.83;3.58;;;;;;;9.94;61.00;101826.56;5294577;26;98509;-88
2024/04/20 01:51:43;;;;;;;23.77;2.90;;;;;;;9.93;61.20;101835.22;5266716;26;94887;-89
2024/04/20 01:54:09;;;;;;;13.63;3.40;;;;;;;9.89;61.06;101834.25;5266758;26;94973;-90
2024/04/20 01:56:35;;;;;;;11.23;2.28;;;;;;;9.89;60.99;101831.63;5295976;26;98248;-89
2024/04/20 01:59:01;;;;;;;16.70;2.38;;;;;;;9.87;61.26;101827.19;5271653;26;98388;-89
2024/04/20 02:01:32;;;;;;;12.18;2.35;;;;;;;9.84;61.37;101829.69;5302599;26;94795;-89
2024/04/20 02:04:07;;;;;;;14.88;2.10;;;;;;;9.85;61.37;101831.47;5297806;26;94856;-88
2024/04/20 02:06:36;;;;;;;14.70;3.42;;;;;;;9.82;61.44;101837.50;5270043;26;98632;-89
2024/04/20 02:09:01;;;;;;;15.80;2.20;;;;;;;9.83;61.22;101838.38;5301503;26;98627;-88
2024/04/20 02:11:30;;;;;;;17.27;3.08;;;;;;;9.82;61.23;101845.31;5299885;26;94754;-88
2024/04/20 02:13:56;;;;;;;18.42;2.42;;;;;;;9.81;61.51;101845.25;5270990;26;95042;-88
2024/04/20 02:16:22;;;;;;;13.27;2.65;;;;;;;9.81;61.38;101840.94;5288897;26;98528;-89
2024/04/20 02:18:48;;;;;;;14.50;2.40;;;;;;;9.83;61.54;101843.59;5302527;26;98177;-88
2024/04/20 02:21:18;;;;;;;13.55;2.40;;;;;;;9.83;61.49;101844.47;5308835;26;94801;-88
2024/04/20 02:23:44;;;;;;;18.33;2.80;;;;;;;9.83;61.61;101852.28;5297477;26;94891;-89
2024/04/20 02:26:13;;;;;;;10.93;2.30;;;;;;;9.83;61.46;101848.78;5268312;26;97306;-88
2024/04/20 02:28:39;;;;;;;19.75;2.88;;;;;;;9.80;61.31;101849.56;5274943;26;99043;-89
2024/04/20 02:31:06;;;;;;;19.50;3.45;;;;;;;9.80;61.61;101854.78;5301684;26;94805;-88
2024/04/20 02:33:32;;;;;;;13.45;2.90;;;;;;;9.79;61.36;101853.03;5305837;26;95109;-88
2024/04/20 02:35:59;;;;;;;21.90;2.78;;;;;;;9.78;61.35;101851.25;5269099;26;97753;-89
2024/04/20 02:38:25;;;;;;;16.52;2.53;;;;;;;9.77;61.40;101856.41;5272238;26;99481;-88
2024/04/20 02:40:52;;;;;;;15.57;2.97;;;;;;;9.76;61.24;101857.25;5293971;26;96144;-88
2024/04/20 02:43:18;;;;;;;21.35;3.08;;;;;;;9.74;61.29;101858.94;5275901;26;94951;-88
2024/04/20 02:45:43;;;;;;;17.65;2.47;;;;;;;9.72;61.34;101862.34;5288617;26;96945;-87
2024/04/20 02:48:09;;;;;;;17.85;2.55;;;;;;;9.72;61.35;101872.78;5269154;26;97064;-88
2024/04/20 02:50:35;;;;;;;19.02;3.65;;;;;;;9.71;61.42;101871.03;5296367;26;94794;-88
2024/04/20 02:53:01;;;;;;;15.75;2.22;;;;;;;9.69;61.51;101870.06;5303071;26;95051;-88
2024/04/20 02:55:29;;;;;;;17.25;3.17;;;;;;;9.68;61.37;101876.13;5297800;26;95702;-88
2024/04/20 02:57:55;;;;;;;23.40;3.40;;;;;;;9.68;61.31;101878.72;5297807;26;98395;-88
2024/04/20 03:00:21;;;;;;;20.40;3.20;;;;;;;9.65;61.15;101873.41;5290213;26;95064;-88
2024/04/20 03:02:46;;;;;;;16.85;3.45;;;;;;;9.63;61.28;101875.09;5263178;26;94996;-88
2024/04/20 03:05:15;;;;;;;14.30;3.13;;;;;;;9.62;61.17;101875.03;5275064;26;98658;-88
2024/04/20 03:07:40;;;;;;;15.20;2.40;;;;;;;9.62;61.52;101880.25;5271563;26;98748;-87
2024/04/20 03:10:06;;;;;;;16.55;2.28;;;;;;;9.63;61.72;101880.31;5293548;26;94980;-88
2024/04/20 03:12:32;;;;;;;14.55;2.42;;;;;;;9.64;61.36;101884.69;5298310;26;94926;-87
2024/04/20 03:14:57;;;;;;;18.17;4.22;;;;;;;9.63;61.78;101882.91;5297885;26;98296;-88
2024/04/20 03:17:23;;;;;;;13.18;2.60;;;;;;;9.64;61.39;101879.47;5296606;26;98359;-87
2024/04/20 03:19:50;;;;;;;16.80;3.10;;;;;;;9.66;61.56;101887.31;5271291;26;94881;-88
2024/04/20 03:22:16;;;;;;;17.92;2.20;;;;;;;9.66;61.70;101883.00;5296539;26;95115;-88
2024/04/20 03:24:42;;;;;;;17.75;2.33;;;;;;;9.66;61.31;101896.03;5296202;26;95559;-88
2024/04/20 03:27:10;;;;;;;13.02;2.08;;;;;;;9.65;61.63;101891.66;5267075;26;98813;-88
2024/04/20 03:29:36;;;;;;;13.20;2.50;;;;;;;9.66;61.43;101892.53;5267839;26;94872;-87
2024/04/20 03:32:04;;;;;;;8.80;2.63;;;;;;;9.66;61.50;101897.75;5294221;26;94990;-87
2024/04/20 03:34:29;;;;;;;13.52;2.05;;;;;;;9.67;61.70;101900.41;5295030;26;98470;-88
2024/04/20 03:36:56;;;;;;;14.30;2.00;;;;;;;9.69;61.58;101908.28;5299814;26;98334;-87
2024/04/20 03:39:22;;;;;;;15.07;2.20;;;;;;;9.70;61.76;101907.44;5272534;26;94921;-88
2024/04/20 03:41:47;;;;;;;11.70;2.33;;;;;;;9.73;61.26;101915.34;5267770;26;95723;-88
2024/04/20 03:44:14;;;;;;;17.08;2.53;;;;;;;9.74;61.60;101909.31;5270083;26;97376;-87
2024/04/20 03:46:40;;;;;;;11.52;2.08;;;;;;;9.75;61.52;101920.59;5292076;26;94989;-88
2024/04/20 03:49:05;;;;;;;15.02;2.30;;;;;;;9.75;61.66;101913.69;5298134;26;95241;-88
2024/04/20 03:51:34;;;;;;;16.13;2.88;;;;;;;9.74;61.28;101913.66;5269970;26;94993;-87
2024/04/20 03:54:00;;;;;;;19.65;2.05;;;;;;;9.77;61.36;101930.25;5298236;26;98117;-87
2024/04/20 03:56:27;;;;;;;16.17;3.05;;;;;;;9.77;61.40;101921.53;5267651;26;98462;-88
2024/04/20 03:58:52;;;;;;;10.27;1.85;;;;;;;9.77;61.46;101929.34;5272865;26;94765;-88
2024/04/20 04:01:21;;;;;;;11.90;2.00;;;;;;;9.75;61.32;101925.81;5304080;26;95039;-87
2024/04/20 04:03:46;;;;;;;9.18;1.75;;;;;;;9.76;61.38;101931.09;5297010;26;97987;-87
2024/04/20 04:06:12;;;;;;;19.45;3.22;;;;;;;9.76;61.48;101935.41;5295358;26;96013;-87
2024/04/20 04:08:37;;;;;;;13.32;3.08;;;;;;;9.76;61.51;101936.28;5295655;26;94935;-88
2024/04/20 04:11:03;;;;;;;13.15;3.00;;;;;;;9.78;61.41;101936.34;5286633;26;94834;-88
2024/04/20 04:13:29;;;;;;;15.90;3.17;;;;;;;9.78;61.55;101944.16;5296431;26;97719;-87
2024/04/20 04:15:54;;;;;;;13.10;2.03;;;;;;;9.79;61.44;101946.81;5268533;26;98474;-88
2024/04/20 04:18:22;;;;;;;12.48;1.98;;;;;;;9.79;61.48;101949.44;5296463;26;94864;-87
2024/04/20 04:20:49;;;;;;;12.00;2.05;;;;;;;9.79;61.34;101953.78;5261979;26;94973;-88
2024/04/20 04:23:16;;;;;;;10.15;1.70;;;;;;;9.80;61.31;101958.13;5265286;26;98344;-87
2024/04/20 04:25:42;;;;;;;19.20;2.22;;;;;;;9.81;61.51;101967.72;5297138;26;95509;-87
2024/04/20 04:28:08;;;;;;;11.20;1.70;;;;;;;9.82;61.48;101962.56;5297399;26;94911;-87
2024/04/20 04:30:34;;;;;;;14.38;2.20;;;;;;;9.82;61.22;101975.59;5302784;26;95055;-88
2024/04/20 04:33:00;;;;;;;12.32;2.30;;;;;;;9.84;61.53;101971.31;5267438;26;98560;-88
2024/04/20 04:35:26;;;;;;;16.52;2.63;;;;;;;9.87;61.28;101976.63;5297463;26;97718;-87
2024/04/20 04:37:52;;;;;;;12.95;2.22;;;;;;;9.89;61.26;101977.59;5298718;26;94774;-88
2024/04/20 04:40:18;;;;;;;15.05;2.17;;;;;;;9.92;61.33;101987.22;5274732;26;94977;-87
2024/04/20 04:42:44;;;;;;;12.02;2.10;;;;;;;9.94;61.69;101993.34;5269418;26;97888;-88
2024/04/20 04:45:09;;;;;;;16.27;2.20;;;;;;;9.95;61.33;101991.66;5261241;26;98467;-88
2024/04/20 04:47:35;;;;;;;11.18;1.98;;;;;;;9.96;61.08;101994.28;5287907;26;94886;-87
2024/04/20 04:50:01;;;;;;;17.63;2.28;;;;;;;9.97;61.33;102000.41;5270577;26;94880;-87
2024/04/20 04:52:29;;;;;;;16.77;1.98;;;;;;;9.99;61.52;102004.81;5272819;26;98044;-88
2024/04/20 04:54:55;;;;;;;20.55;2.70;;;;;;;10.02;61.21;102006.66;5285537;26;96968;-87
2024/04/20 04:57:21;;;;;;;11.48;1.83;;;;;;;10.03;61.40;102006.69;5313740;26;94930;-88
2024/04/20 04:59:46;;;;;;;14.85;3.20;;;;;;;10.05;61.05;102015.47;5277724;26;94927;-88
2024/04/20 05:02:11;;;;;;;10.68;1.50;;;;;;;10.07;61.31;102011.19;5319916;26;98563;-88
2024/04/20 05:04:37;;;;;;;12.15;2.97;;;;;;;10.08;61.35;102012.94;5325603;26;95925;-87
2024/04/20 05:07:03;;;;;;;14.98;2.17;;;;;;;10.12;61.21;102020.88;5311208;26;94852;-87
2024/04/20 05:09:28;;;;;;;9.88;2.17;;;;;;;10.14;60.97;102027.03;5307638;26;94924;-88
2024/04/20 05:11:56;;;;;;;14.43;1.85;;;;;;;10.12;61.20;102021.75;5286058;26;97608;-87
2024/04/20 05:14:24;;;;;;;12.07;2.15;;;;;;;10.13;61.18;102028.75;5290000;26;98522;-88
2024/04/20 05:16:50;;;;;;;12.73;2.55;;;;;;;10.14;60.99;102034.84;5312486;26;94940;-87
2024/04/20 05:19:15;;;;;;;16.60;3.00;;;;;;;10.15;60.89;102031.41;5309395;26;95142;-87
2024/04/20 05:21:41;;;;;;;9.52;1.77;;;;;;;10.16;61.42;102031.47;5277746;26;98109;-87
2024/04/20 05:24:07;;;;;;;14.73;1.90;;;;;;;10.18;61.11;102031.50;5311480;26;97856;-87
2024/04/20 05:26:33;;;;;;;7.65;1.73;;;;;;;10.19;61.34;102031.53;5308530;26;94941;-88
2024/04/20 05:28:58;;;;;;;9.43;2.22;;;;;;;10.24;61.57;102034.31;5276897;26;95286;-87
2024/04/20 05:31:26;;;;;;;11.82;2.25;;;;;;;10.27;60.98;102037.03;5306130;26;98618;-87
2024/04/20 05:33:52;;;;;;;12.77;2.50;;;;;;;10.29;60.99;102051.00;5322070;26;98691;-87
2024/04/20 05:36:17;;;;;;;16.15;2.80;;;;;;;10.29;60.82;102040.56;5314567;26;94798;-87
2024/04/20 05:38:43;;;;;;;8.57;1.85;;;;;;;10.30;60.76;102047.53;5309393;26;95022;-87
2024/04/20 05:41:09;;;;;;;15.05;2.38;;;;;;;10.31;60.68;102049.38;5286869;26;98514;-88
2024/04/20 05:43:35;;;;;;;14.77;2.40;;;;;;;10.35;60.95;102052.97;5287107;26;97379;-88
2024/04/20 05:46:08;;;;;;;15.73;2.28;;;;;;;10.38;60.74;102063.50;5288732;26;94904;-87
2024/04/20 05:48:34;;;;;;;16.08;2.78;;;;;;;10.40;60.62;102065.31;5314188;26;95115;-88
2024/04/20 05:51:00;;;;;;;11.75;2.63;;;;;;;10.42;60.70;102061.03;5309525;26;98094;-87
2024/04/20 05:53:26;;;;;;;11.55;1.63;;;;;;;10.44;60.72;102066.28;5283893;26;98237;-87
2024/04/20 05:55:51;;;;;;;13.98;2.70;;;;;;;10.44;60.66;102080.22;5306924;26;94916;-87
2024/04/20 05:58:20;;;;;;;12.88;1.63;;;;;;;10.43;60.27;102073.25;5281205;26;94974;-88
2024/04/20 06:00:47;;;;;;;14.80;3.03;;;;;;;10.47;60.44;102080.31;5309050;26;97247;-88
2024/04/20 06:03:13;;;;;;;15.18;1.65;;;;;;;10.51;60.48;102083.03;5276818;26;98518;-87
2024/04/20 06:05:41;;;;;;;10.43;2.25;;;;;;;10.53;60.46;102084.84;5307376;26;94867;-88
2024/04/20 06:08:07;;;;;;;11.73;2.30;;;;;;;10.56;60.42;102091.91;5280868;26;94952;-87
2024/04/20 06:10:38;;;;;;;9.85;2.60;;;;;;;10.61;60.09;102095.56;5281115;26;97000;-87
2024/04/20 06:13:03;;;;;;;16.85;2.00;;;;;;;10.65;60.16;102095.69;5290500;26;99314;-88
2024/04/20 06:15:33;;;;;;;10.50;1.50;;;;;;;10.70;60.46;102103.69;5289229;26;94989;-88
2024/04/20 06:17:59;;;;;;;14.05;3.22;;;;;;;10.74;60.53;102108.16;5286861;26;94911;-87
2024/04/20 06:20:25;;;;;;;11.20;1.90;;;;;;;10.81;60.49;102106.63;5314104;26;98601;-88
2024/04/20 06:22:51;;;;;;;12.30;2.60;;;;;;;10.84;60.41;102106.72;5311828;26;98479;-87
2024/04/20 06:25:17;;;;;;;12.57;2.40;;;;;;;10.89;60.13;102115.59;5310657;26;94961;-87
2024/04/20 06:27:42;;;;;;;14.32;4.63;;;;;;;10.94;60.03;102108.78;5312541;26;95069;-88
2024/04/20 06:30:16;;;;;;;12.80;2.05;;;;;;;10.97;59.73;102118.44;5291385;26;98203;-87
2024/04/20 06:32:42;;;;;;;11.43;2.35;;;;;;;11.01;59.88;102115.06;5286419;26;98396;-87
2024/04/20 06:35:07;;;;;;;10.95;2.00;;;;;;;11.04;59.79;102117.78;5314013;26;95476;-88
2024/04/20 06:37:35;;;;;;;6.05;1.20;;;;;;;11.08;59.98;102126.59;5276494;26;94902;-87
2024/04/20 06:40:02;;;;;;;11.77;2.15;;;;;;;11.13;60.21;102119.81;5304886;26;98598;-87
2024/04/20 06:42:30;;;;;;;10.30;1.70;;;;;;;11.19;59.87;102131.34;5277658;26;98682;-87
2024/04/20 06:44:56;;;;;;;9.05;2.08;;;;;;;11.25;59.60;102128.00;5304180;26;94914;-88
2024/04/20 06:47:24;;;;;;;10.27;2.63;;;;;;;11.32;59.80;102134.28;5283262;26;95084;-87
2024/04/20 06:49:52;;;;;;;13.57;2.35;;;;;;;11.36;59.31;102144.00;5321132;26;98277;-87
2024/04/20 06:52:17;;;;;;;12.50;2.10;;;;;;;11.40;59.24;102153.69;5319286;26;95854;-87
2024/04/20 06:54:44;;;;;;;12.98;2.58;;;;;;;11.45;58.96;102149.50;5285622;26;94984;-87
2024/04/20 06:57:09;;;;;;;12.48;2.42;;;;;;;11.46;59.13;102146.06;5320597;26;94929;-87
2024/04/20 06:59:35;;;;;;;12.52;2.55;;;;;;;11.51;58.99;102164.47;5282223;26;98339;-87
2024/04/20 07:02:01;;;;;;;14.15;2.75;;;;;;;11.57;59.08;102162.94;5280559;26;97194;-87
2024/04/20 07:04:29;;;;;;;13.23;2.65;;;;;;;11.66;58.91;102170.16;5315436;26;94947;-88
2024/04/20 07:06:55;;;;;;;11.68;2.90;;;;;;;11.72;58.19;102170.31;5312024;26;94937;-88
2024/04/20 07:09:21;;;;;;;11.68;2.58;;;;;;;11.76;58.58;102171.31;5315232;26;98259;-88
2024/04/20 07:11:46;;;;;;;10.05;1.75;;;;;;;11.89;58.83;102162.06;5300808;26;95807;-87
2024/04/20 07:14:12;;;;;;;13.90;1.92;;;;;;;12.09;59.69;102165.31;5279312;26;95048;-88
2024/04/20 07:16:38;;;;;;;9.93;1.67;;;;;;;12.40;60.09;102176.56;5301934;26;94928;-87
2024/04/20 07:19:05;;;;;;;8.77;2.47;;;;;;;12.67;59.23;102173.78;5283645;26;98460;-88
2024/04/20 07:21:50;;;;;;;8.07;2.20;;;;;;;12.97;59.04;102181.50;5273232;26;98371;-87
2024/04/20 07:24:16;;;;;;;9.23;1.65;;;;;;;13.29;58.31;102187.50;5264849;26;94882;-88
2024/04/20 07:26:47;;;;;;;10.20;2.13;;;;;;;13.57;57.11;102185.53;5276994;26;95147;-88
2024/04/20 07:29:17;;;;;;;10.27;1.73;;;;;;;13.77;56.78;102188.56;5318396;26;95909;-90
2024/04/20 07:31:43;;;;;;;8.95;1.80;;;;;;;13.96;56.68;102194.22;5304405;26;98400;-89
2024/04/20 07:34:11;;;;;;;8.40;2.15;;;;;;;14.10;56.43;102198.00;5289276;26;94917;-90
2024/04/20 07:36:40;;;;;;;9.98;2.55;;;;;;;14.25;55.36;102192.13;5283794;26;95092;-89
2024/04/20 07:39:05;;;;;;;6.38;1.52;;;;;;;14.34;55.11;102194.06;5314279;26;98565;-87
2024/04/20 07:41:31;;;;;;;8.77;1.70;;;;;;;14.50;54.81;102192.59;5303634;26;97987;-87
2024/04/20 07:44:00;;;;;;;15.73;3.38;;;;;;;14.65;54.41;102196.41;5316216;26;95622;-88
2024/04/20 07:46:31;;;;;;;7.82;2.03;;;;;;;14.83;54.57;102195.84;5340231;26;96857;-88
2024/04/20 07:49:04;;;;;;;13.27;2.30;;;;;;;15.01;53.88;102197.88;5310377;26;98228;-89
2024/04/20 07:51:30;;;;;;;9.90;1.58;;;;;;;15.26;54.18;102206.13;5312686;26;95807;-90
2024/04/20 07:53:59;;;;;;;7.38;1.38;;;;;;;15.38;52.48;102203.69;5315951;26;94858;-89
2024/04/20 07:56:27;;;;;;;9.27;1.77;;;;;;;15.29;50.91;102206.16;5262838;26;95030;-88
2024/04/20 07:59:02;;;;;;;9.85;2.55;;;;;;;15.10;50.82;102207.66;5276374;26;98657;-88
2024/04/20 08:01:35;;;;;;;16.35;3.90;;;;;;;14.94;51.13;102209.16;5314378;26;98590;-88
2024/04/20 08:04:01;;;;;;;9.05;1.67;;;;;;;14.88;51.18;102216.03;5278727;26;94946;-88
2024/04/20 08:06:27;;;;;;;10.52;1.70;;;;;;;14.96;52.21;102227.56;5272206;26;96542;-87
2024/04/20 08:08:55;;;;;;;9.90;1.80;;;;;;;15.04;51.75;102221.59;5312827;26;95657;-89
2024/04/20 08:11:21;;;;;;;11.25;2.25;;;;;;;15.01;50.20;102216.25;5303401;26;98290;-88
2024/04/20 08:13:46;;;;;;;11.50;1.88;;;;;;;14.88;49.88;102221.28;5309202;26;94939;-88
2024/04/20 08:16:15;;;;;;;8.77;1.52;;;;;;;14.65;49.97;102230.56;5289219;26;94971;-88
2024/04/20 08:18:46;;;;;;;11.23;2.67;;;;;;;14.41;49.34;102224.81;5290606;26;98109;-88
2024/04/20 08:21:20;;;;;;;14.30;1.88;;;;;;;14.12;49.47;102234.72;5287961;26;98938;-87
2024/04/20 08:23:50;;;;;;;17.45;3.13;;;;;;;13.92;49.71;102239.56;5294532;26;94966;-88
2024/04/20 08:26:21;;;;;;;11.35;2.13;;;;;;;13.69;49.94;102247.84;5268117;26;94921;-89
2024/04/20 08:28:54;;;;;;;10.75;1.77;;;;;;;13.52;50.24;102255.31;5292788;26;95575;-88
2024/04/20 08:31:24;;;;;;;10.75;2.65;;;;;;;13.50;51.31;102252.66;5267620;26;98118;-88
2024/04/20 08:34:05;;;;;;;;;;;;;;;;;;;;;
2024/04/20 08:36:34;;;;;;;9.85;1.63;;;;;;;14.86;55.09;102255.41;5298120;26;95068;-87
2024/04/20 08:39:02;;;;;;;10.20;2.03;;;;;;;15.85;55.08;102257.84;5291745;26;95595;-87
2024/04/20 08:41:32;;;;;;;10.82;2.33;;;;;;;16.91;53.87;102248.47;5265713;26;98727;-87
2024/04/20 08:44:03;;;;;;;12.25;2.25;;;;;;;17.66;51.53;102248.16;5295874;26;95323;-88
2024/04/20 08:46:33;;;;;;;13.00;1.63;;;;;;;17.50;49.08;102252.47;5267642;26;95067;-87
2024/04/20 08:49:04;;;;;;;13.00;2.00;;;;;;;17.11;47.96;102253.03;5297147;26;95920;-88
2024/04/20 08:51:32;;;;;;;10.68;1.67;;;;;;;16.74;46.49;102252.72;5255380;26;98692;-88
2024/04/20 08:54:03;;;;;;;11.18;1.50;;;;;;;16.35;45.67;102269.84;5287146;26;94864;-88
2024/04/20 08:56:29;;;;;;;12.60;2.75;;;;;;;15.88;44.81;102278.03;5268166;26;95028;-86
2024/04/20 08:58:55;;;;;;;8.73;2.33;;;;;;;15.37;45.19;102285.16;5292098;26;98599;-87
2024/04/20 09:01:22;;;;;;;6.13;1.60;;;;;;;14.93;46.15;102280.94;5265576;26;98201;-87
2024/04/20 09:03:49;;;;;;;11.40;2.03;;;;;;;14.60;46.86;102281.22;5266541;26;95071;-87
2024/04/20 09:06:15;;;;;;;11.43;1.95;;;;;;;14.32;47.22;102270.13;5299386;26;95029;-87
2024/04/20 09:08:43;;;;;;;12.93;3.78;;;;;;;14.17;48.08;102281.22;5269262;26;98327;-87
2024/04/20 09:11:09;;;;;;;14.55;3.38;;;;;;;14.11;48.84;102285.44;5267014;26;98516;-87
2024/04/20 09:13:35;;;;;;;14.30;2.72;;;;;;;14.05;48.83;102280.97;5299944;26;94836;-87
2024/04/20 09:16:01;;;;;;;9.57;2.38;;;;;;;14.01;50.15;102271.25;5297462;26;95438;-89
2024/04/20 09:18:26;;;;;;;8.77;2.58;;;;;;;14.28;51.87;102278.81;5268875;26;95870;-88
2024/04/20 09:20:58;;;;;;;8.27;2.10;;;;;;;14.72;52.33;102277.91;5268702;26;95605;-88
2024/04/20 09:23:29;;;;;;;;;;;;;;;15.02;52.50;102270.56;5301252;26;95187;-90
2024/04/20 09:25:55;;;;;;;9.27;1.42;;;;;;;15.30;50.72;102278.91;5272872;26;95107;-88
2024/04/20 09:28:24;;;;;;;12.85;1.63;;;;;;;15.42;49.23;102279.13;5284939;26;98363;-89
2024/04/20 09:30:52;;;;;;;10.82;1.52;;;;;;;15.44;47.74;102276.50;5305198;26;98133;-90
2024/04/20 09:33:18;;;;;;;10.15;1.95;;;;;;;15.38;47.43;102279.94;5305139;26;94879;-88
2024/04/20 09:35:44;;;;;;;10.48;1.92;;;;;;;15.33;47.33;102280.69;5304153;26;95357;-89
2024/04/20 09:38:12;;;;;;;12.93;2.22;;;;;;;15.30;47.00;102278.03;5320121;26;98445;-89
2024/04/20 09:40:37;;;;;;;19.05;2.22;;;;;;;15.23;46.80;102283.19;5282525;26;97074;-90
2024/04/20 09:43:09;;;;;;;8.80;1.92;;;;;;;15.26;47.51;102270.94;5321766;26;94977;-91
2024/04/20 09:45:38;;;;;;;7.57;2.42;;;;;;;15.43;48.52;102282.63;5309807;26;94995;-88
2024/04/20 09:48:42;;;;;;;9.32;2.50;;;;;;;15.59;48.07;102286.38;5278298;26;98190;-91
2024/04/20 09:51:20;;;;;;;9.35;2.42;;;;;;;15.53;46.16;102295.06;5334158;26;96382;-90
2024/04/20 09:53:55;;;;;;;7.38;1.67;;;;;;;15.33;46.05;102293.84;5302008;26;95348;-90
2024/04/20 09:56:24;;;;;;;4.90;1.50;;;;;;;15.10;46.44;102297.00;5310438;26;95067;-90
2024/04/20 09:58:53;;;;;;;4.47;0.95;;;;;;;14.90;46.39;102294.03;5312481;26;98564;-90
2024/04/20 10:01:22;;;;;;;6.07;1.17;;;;;;;14.72;46.59;102288.44;5328021;26;97411;-90
2024/04/20 10:03:59;;;;;;;7.63;1.63;;;;;;;14.62;47.44;102292.63;5311399;26;95896;-89
2024/04/20 10:06:30;;;;;;;8.10;1.40;;;;;;;14.66;48.08;102291.81;5324867;26;95094;-89
2024/04/20 10:09:07;;;;;;;6.30;1.73;;;;;;;14.83;48.28;102293.03;5303973;26;95671;-91
2024/04/20 10:11:35;;;;;;;13.27;2.38;;;;;;;15.04;48.50;102299.50;5276667;26;97384;-89
2024/04/20 10:14:03;;;;;;;9.60;1.63;;;;;;;15.30;48.43;102293.81;5292322;26;94994;-92
2024/04/20 10:16:32;;;;;;;10.43;1.70;;;;;;;15.57;47.88;102288.09;5280398;26;94961;-90
2024/04/20 10:18:58;;;;;;;8.18;1.77;;;;;;;15.85;48.04;102281.53;5274556;26;98520;-91
2024/04/20 10:21:27;;;;;;;9.48;1.73;;;;;;;16.10;48.50;102297.63;5287043;26;95621;-89
2024/04/20 10:23:59;;;;;;;6.63;1.42;;;;;;;16.28;46.75;102312.78;5288757;26;94825;-90
2024/04/20 10:26:29;;;;;;;13.38;5.13;;;;;;;16.11;45.22;102317.81;5304671;26;94925;-89
2024/04/20 10:29:08;;;;;;;9.80;3.42;;;;;;;15.67;44.75;102337.34;5318263;26;98264;-90
2024/04/20 10:31:37;;;;;;;18.48;7.18;;;;;;;15.22;45.20;102338.34;5301948;26;95554;-90
2024/04/20 10:34:02;;;;;;;11.55;3.97;;;;;;;14.79;45.63;102338.47;5272258;26;94886;-89
2024/04/20 10:36:29;;;;;;;13.55;4.13;;;;;;;14.45;46.51;102334.25;5304819;26;95085;-90
2024/04/20 10:39:09;;;;;;;6.38;1.85;;;;;;;14.09;47.30;102337.88;5301734;26;97959;-89
2024/04/20 10:41:36;;;;;;;10.32;2.17;;;;;;;13.83;47.56;102329.44;5307456;26;94865;-89
2024/04/20 10:44:18;;;;;;;5.20;1.35;;;;;;;13.57;48.64;102337.59;5302942;26;94894;-90
2024/04/20 10:46:49;;;;;;;8.68;1.85;;;;;;;13.43;49.09;102332.00;5331289;26;95095;-89
2024/04/20 10:49:15;;;;;;;6.13;1.70;;;;;;;13.31;49.35;102334.31;5294822;26;97392;-90
2024/04/20 10:51:51;;;;;;;9.40;1.33;;;;;;;13.27;50.54;102324.56;5273687;26;98224;-90
2024/04/20 10:54:23;;;;;;;7.05;1.80;;;;;;;13.44;51.79;102315.44;5280476;26;94928;-89
2024/04/20 10:56:54;;;;;;;8.57;1.30;;;;;;;13.80;52.03;102311.91;5294014;26;95098;-89
2024/04/20 10:59:28;;;;;;;6.72;1.65;;;;;;;14.22;52.16;102304.91;5299440;26;97797;-90
2024/04/20 11:01:54;;;;;;;5.30;1.33;;;;;;;14.56;51.89;102311.75;5307857;26;94985;-90
2024/04/20 11:04:20;;;;;;;4.97;0.95;;;;;;;14.91;52.03;102306.28;5298179;26;94909;-89
2024/04/20 11:06:46;;;;;;;5.63;1.35;;;;;;;15.14;50.39;102308.44;5302614;26;95130;-90
2024/04/20 11:09:13;;;;;;;5.45;1.10;;;;;;;15.16;49.56;102330.38;5299654;26;96099;-90
2024/04/20 11:11:44;;;;;;;7.18;1.35;;;;;;;15.01;49.08;102328.38;5274409;26;98321;-92
2024/04/20 11:14:13;;;;;;;4.63;1.10;;;;;;;14.78;48.68;102330.59;5296364;26;94922;-91
2024/04/20 11:16:55;;;;;;;4.88;0.88;;;;;;;14.46;48.34;102318.53;5314958;26;95211;-94
2024/04/20 11:19:54;;;;;;;7.32;1.30;;;;;;;14.12;48.48;102318.69;5289947;26;96209;-95
2024/04/20 11:22:51;;;;;;;4.97;1.10;;;;;;;13.78;49.53;102310.06;5307502;26;97779;-94
2024/04/20 11:25:30;;;;;;;10.13;1.52;;;;;;;13.69;51.13;102308.16;5311229;26;94807;-94
2024/04/20 11:27:59;;;;;;;5.10;1.65;;;;;;;13.86;52.39;102300.66;5313645;26;94961;-95